sensor_id;sensor_type;location;lat;lon;timestamp;temperature;humidity
23156;DHT22;11746;50.876;4.246;2023-05-07T00:00:10;17.70;99.90
23156;DHT22;11746;50.876;4.246;2023-05-07T00:02:36;17.70;99.90
23156;DHT22;11746;50.876;4.246;2023-05-07T00:05:07;17.70;99.90
23156;DHT22;11746;50.876;4.246;2023-05-07T00:07:36;17.70;99.90
23156;DHT22;11746;50.876;4.246;2023-05-07T00:10:03;17.70;99.90
23156;DHT22;11746;50.876;4.246;2023-05-07T00:12:29;17.70;99.90
23156;DHT22;11746;50.876;4.246;2023-05-07T00:15:01;17.60;99.90
23156;DHT22;11746;50.876;4.246;2023-05-07T00:17:27;17.70;99.90
23156;DHT22;11746;50.876;4.246;2023-05-07T00:19:53;17.80;99.90
23156;DHT22;11746;50.876;4.246;2023-05-07T00:22:19;17.70;99.90
23156;DHT22;11746;50.876;4.246;2023-05-07T00:24:44;17.70;99.90
23156;DHT22;11746;50.876;4.246;2023-05-07T00:27:10;17.80;99.90
23156;DHT22;11746;50.876;4.246;2023-05-07T00:29:36;17.90;99.90
23156;DHT22;11746;50.876;4.246;2023-05-07T00:32:02;17.90;99.90
23156;DHT22;11746;50.876;4.246;2023-05-07T00:34:28;17.70;99.90
23156;DHT22;11746;50.876;4.246;2023-05-07T00:36:54;17.70;99.90
23156;DHT22;11746;50.876;4.246;2023-05-07T00:39:20;17.60;99.90
23156;DHT22;11746;50.876;4.246;2023-05-07T00:41:46;17.60;99.90
23156;DHT22;11746;50.876;4.246;2023-05-07T00:44:13;17.60;99.90
23156;DHT22;11746;50.876;4.246;2023-05-07T00:46:40;17.60;99.90
23156;DHT22;11746;50.876;4.246;2023-05-07T00:49:06;17.60;99.90
23156;DHT22;11746;50.876;4.246;2023-05-07T00:51:32;17.60;99.90
23156;DHT22;11746;50.876;4.246;2023-05-07T00:54:01;17.60;99.90
23156;DHT22;11746;50.876;4.246;2023-05-07T00:56:28;17.60;99.90
23156;DHT22;11746;50.876;4.246;2023-05-07T00:58:54;17.50;99.90
23156;DHT22;11746;50.876;4.246;2023-05-07T01:01:20;17.50;99.90
23156;DHT22;11746;50.876;4.246;2023-05-07T01:03:46;17.40;99.90
23156;DHT22;11746;50.876;4.246;2023-05-07T01:06:12;17.30;99.90
23156;DHT22;11746;50.876;4.246;2023-05-07T01:08:42;17.20;99.90
23156;DHT22;11746;50.876;4.246;2023-05-07T01:11:08;17.20;99.90
23156;DHT22;11746;50.876;4.246;2023-05-07T01:13:36;17.10;99.90
23156;DHT22;11746;50.876;4.246;2023-05-07T01:16:03;17.10;99.90
23156;DHT22;11746;50.876;4.246;2023-05-07T01:18:29;17.10;99.90
23156;DHT22;11746;50.876;4.246;2023-05-07T01:20:58;17.10;99.90
23156;DHT22;11746;50.876;4.246;2023-05-07T01:23:25;17.10;99.90
23156;DHT22;11746;50.876;4.246;2023-05-07T01:25:53;17.10;99.90
23156;DHT22;11746;50.876;4.246;2023-05-07T01:28:19;17.00;99.90
23156;DHT22;11746;50.876;4.246;2023-05-07T01:30:55;16.90;99.90
23156;DHT22;11746;50.876;4.246;2023-05-07T01:33:22;16.90;99.90
23156;DHT22;11746;50.876;4.246;2023-05-07T01:35:52;16.90;99.90
23156;DHT22;11746;50.876;4.246;2023-05-07T01:38:20;16.80;99.90
23156;DHT22;11746;50.876;4.246;2023-05-07T01:40:47;16.80;99.90
23156;DHT22;11746;50.876;4.246;2023-05-07T01:43:13;16.80;99.90
23156;DHT22;11746;50.876;4.246;2023-05-07T01:45:40;16.70;99.90
23156;DHT22;11746;50.876;4.246;2023-05-07T01:48:07;16.60;99.90
23156;DHT22;11746;50.876;4.246;2023-05-07T01:50:34;16.70;99.90
23156;DHT22;11746;50.876;4.246;2023-05-07T01:53:01;16.60;99.90
23156;DHT22;11746;50.876;4.246;2023-05-07T01:55:28;16.60;99.90
23156;DHT22;11746;50.876;4.246;2023-05-07T01:57:53;16.50;99.90
23156;DHT22;11746;50.876;4.246;2023-05-07T02:00:20;16.50;99.90
23156;DHT22;11746;50.876;4.246;2023-05-07T02:02:46;16.50;99.90
23156;DHT22;11746;50.876;4.246;2023-05-07T02:05:11;16.50;99.90
23156;DHT22;11746;50.876;4.246;2023-05-07T02:07:37;16.40;99.90
23156;DHT22;11746;50.876;4.246;2023-05-07T02:10:03;16.40;99.90
23156;DHT22;11746;50.876;4.246;2023-05-07T02:12:30;16.40;99.90
23156;DHT22;11746;50.876;4.246;2023-05-07T02:14:56;16.50;99.90
23156;DHT22;11746;50.876;4.246;2023-05-07T02:17:22;16.50;99.90
23156;DHT22;11746;50.876;4.246;2023-05-07T02:19:48;16.50;99.90
23156;DHT22;11746;50.876;4.246;2023-05-07T02:22:14;16.50;99.90
23156;DHT22;11746;50.876;4.246;2023-05-07T02:24:39;16.40;99.90
23156;DHT22;11746;50.876;4.246;2023-05-07T02:27:05;16.50;99.90
23156;DHT22;11746;50.876;4.246;2023-05-07T02:29:31;16.50;99.90
23156;DHT22;11746;50.876;4.246;2023-05-07T02:31:57;16.50;99.90
23156;DHT22;11746;50.876;4.246;2023-05-07T02:34:23;16.50;99.90
23156;DHT22;11746;50.876;4.246;2023-05-07T02:36:49;16.50;99.90
23156;DHT22;11746;50.876;4.246;2023-05-07T02:39:17;16.50;99.90
23156;DHT22;11746;50.876;4.246;2023-05-07T02:41:42;16.60;99.90
23156;DHT22;11746;50.876;4.246;2023-05-07T02:44:08;16.70;99.90
23156;DHT22;11746;50.876;4.246;2023-05-07T02:46:34;16.70;99.90
23156;DHT22;11746;50.876;4.246;2023-05-07T02:49:00;16.70;99.90
23156;DHT22;11746;50.876;4.246;2023-05-07T02:51:26;16.70;99.90
23156;DHT22;11746;50.876;4.246;2023-05-07T02:53:52;16.70;99.90
23156;DHT22;11746;50.876;4.246;2023-05-07T02:56:18;16.70;99.90
23156;DHT22;11746;50.876;4.246;2023-05-07T02:58:44;16.70;99.90
23156;DHT22;11746;50.876;4.246;2023-05-07T03:01:10;16.70;99.90
23156;DHT22;11746;50.876;4.246;2023-05-07T03:03:36;16.70;99.90
23156;DHT22;11746;50.876;4.246;2023-05-07T03:06:05;16.70;99.90
23156;DHT22;11746;50.876;4.246;2023-05-07T03:08:31;16.70;99.90
23156;DHT22;11746;50.876;4.246;2023-05-07T03:10:57;16.70;99.90
23156;DHT22;11746;50.876;4.246;2023-05-07T03:13:22;16.70;99.90
23156;DHT22;11746;50.876;4.246;2023-05-07T03:15:48;16.70;99.90
23156;DHT22;11746;50.876;4.246;2023-05-07T03:18:14;16.70;99.90
23156;DHT22;11746;50.876;4.246;2023-05-07T03:20:40;16.70;99.90
23156;DHT22;11746;50.876;4.246;2023-05-07T03:23:06;16.70;99.90
23156;DHT22;11746;50.876;4.246;2023-05-07T03:25:32;16.70;99.90
23156;DHT22;11746;50.876;4.246;2023-05-07T03:27:59;16.60;99.90
23156;DHT22;11746;50.876;4.246;2023-05-07T03:30:25;16.60;99.90
23156;DHT22;11746;50.876;4.246;2023-05-07T03:32:51;16.60;99.90
23156;DHT22;11746;50.876;4.246;2023-05-07T03:35:16;16.50;99.90
23156;DHT22;11746;50.876;4.246;2023-05-07T03:37:42;16.50;99.90
23156;DHT22;11746;50.876;4.246;2023-05-07T03:40:09;16.40;99.90
23156;DHT22;11746;50.876;4.246;2023-05-07T03:42:35;16.50;99.90
23156;DHT22;11746;50.876;4.246;2023-05-07T03:45:02;16.50;99.90
23156;DHT22;11746;50.876;4.246;2023-05-07T03:47:28;16.70;99.90
23156;DHT22;11746;50.876;4.246;2023-05-07T03:49:53;16.80;99.90
23156;DHT22;11746;50.876;4.246;2023-05-07T03:52:20;16.90;99.90
23156;DHT22;11746;50.876;4.246;2023-05-07T03:54:50;16.90;99.90
23156;DHT22;11746;50.876;4.246;2023-05-07T03:57:16;16.80;99.90
23156;DHT22;11746;50.876;4.246;2023-05-07T03:59:41;16.80;99.90
23156;DHT22;11746;50.876;4.246;2023-05-07T04:02:07;16.80;99.90
23156;DHT22;11746;50.876;4.246;2023-05-07T04:04:33;16.80;99.90
23156;DHT22;11746;50.876;4.246;2023-05-07T04:06:59;16.80;99.90
23156;DHT22;11746;50.876;4.246;2023-05-07T04:09:26;16.90;99.90
23156;DHT22;11746;50.876;4.246;2023-05-07T04:11:52;16.80;99.90
23156;DHT22;11746;50.876;4.246;2023-05-07T04:14:17;16.80;99.90
23156;DHT22;11746;50.876;4.246;2023-05-07T04:16:43;16.70;99.90
23156;DHT22;11746;50.876;4.246;2023-05-07T04:19:09;16.80;99.90
23156;DHT22;11746;50.876;4.246;2023-05-07T04:21:35;16.80;99.90
23156;DHT22;11746;50.876;4.246;2023-05-07T04:24:03;16.80;99.90
23156;DHT22;11746;50.876;4.246;2023-05-07T04:26:29;16.90;99.90
23156;DHT22;11746;50.876;4.246;2023-05-07T04:28:55;16.90;99.90
23156;DHT22;11746;50.876;4.246;2023-05-07T04:31:23;16.80;99.90
23156;DHT22;11746;50.876;4.246;2023-05-07T04:33:49;16.80;99.90
23156;DHT22;11746;50.876;4.246;2023-05-07T04:36:20;16.80;99.90
23156;DHT22;11746;50.876;4.246;2023-05-07T04:38:46;16.80;99.90
23156;DHT22;11746;50.876;4.246;2023-05-07T04:41:13;16.80;99.90
23156;DHT22;11746;50.876;4.246;2023-05-07T04:43:39;16.80;99.90
23156;DHT22;11746;50.876;4.246;2023-05-07T04:46:05;16.80;99.90
23156;DHT22;11746;50.876;4.246;2023-05-07T04:48:31;16.80;99.90
23156;DHT22;11746;50.876;4.246;2023-05-07T04:50:57;16.80;99.90
23156;DHT22;11746;50.876;4.246;2023-05-07T04:53:23;16.80;99.90
23156;DHT22;11746;50.876;4.246;2023-05-07T04:55:56;16.90;99.90
23156;DHT22;11746;50.876;4.246;2023-05-07T04:58:25;17.00;99.90
23156;DHT22;11746;50.876;4.246;2023-05-07T05:00:51;17.00;99.90
23156;DHT22;11746;50.876;4.246;2023-05-07T05:03:17;17.10;99.90
23156;DHT22;11746;50.876;4.246;2023-05-07T05:05:43;17.20;99.90
23156;DHT22;11746;50.876;4.246;2023-05-07T05:08:09;17.20;99.90
23156;DHT22;11746;50.876;4.246;2023-05-07T05:10:35;17.30;99.90
23156;DHT22;11746;50.876;4.246;2023-05-07T05:13:01;17.20;99.90
23156;DHT22;11746;50.876;4.246;2023-05-07T05:15:27;17.20;99.90
23156;DHT22;11746;50.876;4.246;2023-05-07T05:17:53;17.20;99.90
23156;DHT22;11746;50.876;4.246;2023-05-07T05:20:19;17.10;99.90
23156;DHT22;11746;50.876;4.246;2023-05-07T05:22:45;17.10;99.90
23156;DHT22;11746;50.876;4.246;2023-05-07T05:25:10;17.00;99.90
23156;DHT22;11746;50.876;4.246;2023-05-07T05:27:36;17.00;99.90
23156;DHT22;11746;50.876;4.246;2023-05-07T05:30:03;17.20;99.90
23156;DHT22;11746;50.876;4.246;2023-05-07T05:32:29;17.30;99.90
23156;DHT22;11746;50.876;4.246;2023-05-07T05:34:55;17.40;99.90
23156;DHT22;11746;50.876;4.246;2023-05-07T05:37:21;17.40;99.90
23156;DHT22;11746;50.876;4.246;2023-05-07T05:39:47;17.40;99.90
23156;DHT22;11746;50.876;4.246;2023-05-07T05:42:13;17.40;99.90
23156;DHT22;11746;50.876;4.246;2023-05-07T05:44:39;17.30;99.90
23156;DHT22;11746;50.876;4.246;2023-05-07T05:47:05;17.00;99.90
23156;DHT22;11746;50.876;4.246;2023-05-07T05:49:31;16.80;99.90
23156;DHT22;11746;50.876;4.246;2023-05-07T05:51:56;16.70;99.90
23156;DHT22;11746;50.876;4.246;2023-05-07T05:54:22;16.70;99.90
23156;DHT22;11746;50.876;4.246;2023-05-07T05:56:48;16.50;99.90
23156;DHT22;11746;50.876;4.246;2023-05-07T05:59:14;16.30;99.90
23156;DHT22;11746;50.876;4.246;2023-05-07T06:01:40;16.20;99.90
23156;DHT22;11746;50.876;4.246;2023-05-07T06:04:06;16.10;99.90
23156;DHT22;11746;50.876;4.246;2023-05-07T06:06:32;16.10;99.90
23156;DHT22;11746;50.876;4.246;2023-05-07T06:08:58;16.00;99.90
23156;DHT22;11746;50.876;4.246;2023-05-07T06:11:24;16.10;99.90
23156;DHT22;11746;50.876;4.246;2023-05-07T06:13:50;16.00;99.90
23156;DHT22;11746;50.876;4.246;2023-05-07T06:16:16;16.00;99.90
23156;DHT22;11746;50.876;4.246;2023-05-07T06:18:42;15.80;99.90
23156;DHT22;11746;50.876;4.246;2023-05-07T06:21:09;15.70;99.90
23156;DHT22;11746;50.876;4.246;2023-05-07T06:23:35;15.60;99.90
23156;DHT22;11746;50.876;4.246;2023-05-07T06:26:01;15.60;99.90
23156;DHT22;11746;50.876;4.246;2023-05-07T06:28:27;15.60;99.90
23156;DHT22;11746;50.876;4.246;2023-05-07T06:30:53;15.70;99.90
23156;DHT22;11746;50.876;4.246;2023-05-07T06:33:19;15.60;99.90
23156;DHT22;11746;50.876;4.246;2023-05-07T06:35:45;15.60;99.90
23156;DHT22;11746;50.876;4.246;2023-05-07T06:38:11;15.60;99.90
23156;DHT22;11746;50.876;4.246;2023-05-07T06:40:37;15.50;99.90
23156;DHT22;11746;50.876;4.246;2023-05-07T06:43:03;15.40;99.90
23156;DHT22;11746;50.876;4.246;2023-05-07T06:45:29;15.50;99.90
23156;DHT22;11746;50.876;4.246;2023-05-07T06:47:55;15.50;99.90
23156;DHT22;11746;50.876;4.246;2023-05-07T06:50:21;15.50;99.90
23156;DHT22;11746;50.876;4.246;2023-05-07T06:52:47;15.60;99.90
23156;DHT22;11746;50.876;4.246;2023-05-07T06:55:13;15.60;99.90
23156;DHT22;11746;50.876;4.246;2023-05-07T06:57:39;15.60;99.90
23156;DHT22;11746;50.876;4.246;2023-05-07T07:00:05;15.80;99.90
23156;DHT22;11746;50.876;4.246;2023-05-07T07:02:36;16.00;99.90
23156;DHT22;11746;50.876;4.246;2023-05-07T07:05:02;16.00;99.90
23156;DHT22;11746;50.876;4.246;2023-05-07T07:07:27;16.00;99.90
23156;DHT22;11746;50.876;4.246;2023-05-07T07:09:53;16.00;99.90
23156;DHT22;11746;50.876;4.246;2023-05-07T07:12:19;15.90;99.90
23156;DHT22;11746;50.876;4.246;2023-05-07T07:14:45;16.00;99.90
23156;DHT22;11746;50.876;4.246;2023-05-07T07:17:11;16.10;99.90
23156;DHT22;11746;50.876;4.246;2023-05-07T07:19:37;16.00;99.90
23156;DHT22;11746;50.876;4.246;2023-05-07T07:22:04;16.10;99.90
23156;DHT22;11746;50.876;4.246;2023-05-07T07:24:30;16.20;99.90
23156;DHT22;11746;50.876;4.246;2023-05-07T07:26:56;16.20;99.90
23156;DHT22;11746;50.876;4.246;2023-05-07T07:29:22;16.20;99.90
23156;DHT22;11746;50.876;4.246;2023-05-07T07:31:48;16.00;99.90
23156;DHT22;11746;50.876;4.246;2023-05-07T07:34:17;15.90;99.90
23156;DHT22;11746;50.876;4.246;2023-05-07T07:36:43;16.00;99.90
23156;DHT22;11746;50.876;4.246;2023-05-07T07:39:09;16.00;99.90
23156;DHT22;11746;50.876;4.246;2023-05-07T07:41:35;16.10;99.90
23156;DHT22;11746;50.876;4.246;2023-05-07T07:44:02;16.30;99.90
23156;DHT22;11746;50.876;4.246;2023-05-07T07:46:29;16.30;99.90
23156;DHT22;11746;50.876;4.246;2023-05-07T07:48:55;16.40;99.90
23156;DHT22;11746;50.876;4.246;2023-05-07T07:51:21;16.30;99.90
23156;DHT22;11746;50.876;4.246;2023-05-07T07:53:47;16.30;99.90
23156;DHT22;11746;50.876;4.246;2023-05-07T07:56:12;16.40;99.90
23156;DHT22;11746;50.876;4.246;2023-05-07T07:58:38;16.40;99.90
23156;DHT22;11746;50.876;4.246;2023-05-07T08:01:04;16.40;99.90
23156;DHT22;11746;50.876;4.246;2023-05-07T08:03:30;16.40;99.90
23156;DHT22;11746;50.876;4.246;2023-05-07T08:05:58;16.40;99.90
23156;DHT22;11746;50.876;4.246;2023-05-07T08:08:24;16.30;99.90
23156;DHT22;11746;50.876;4.246;2023-05-07T08:10:49;16.40;99.90
23156;DHT22;11746;50.876;4.246;2023-05-07T08:13:17;16.60;99.90
23156;DHT22;11746;50.876;4.246;2023-05-07T08:15:43;16.50;99.90
23156;DHT22;11746;50.876;4.246;2023-05-07T08:18:08;16.50;99.90
23156;DHT22;11746;50.876;4.246;2023-05-07T08:20:36;16.40;99.90
23156;DHT22;11746;50.876;4.246;2023-05-07T08:23:05;16.50;99.90
23156;DHT22;11746;50.876;4.246;2023-05-07T08:25:35;16.50;99.90
23156;DHT22;11746;50.876;4.246;2023-05-07T08:28:01;16.60;99.90
23156;DHT22;11746;50.876;4.246;2023-05-07T08:30:28;16.60;99.90
23156;DHT22;11746;50.876;4.246;2023-05-07T08:32:54;16.60;99.90
23156;DHT22;11746;50.876;4.246;2023-05-07T08:35:20;16.60;99.90
23156;DHT22;11746;50.876;4.246;2023-05-07T08:37:46;16.70;99.90
23156;DHT22;11746;50.876;4.246;2023-05-07T08:40:14;16.60;99.90
23156;DHT22;11746;50.876;4.246;2023-05-07T08:42:41;16.50;99.90
23156;DHT22;11746;50.876;4.246;2023-05-07T08:45:10;16.50;99.90
23156;DHT22;11746;50.876;4.246;2023-05-07T08:47:42;16.60;99.90
23156;DHT22;11746;50.876;4.246;2023-05-07T08:50:10;16.80;99.90
23156;DHT22;11746;50.876;4.246;2023-05-07T08:52:37;16.80;99.90
23156;DHT22;11746;50.876;4.246;2023-05-07T08:55:04;16.90;99.90
23156;DHT22;11746;50.876;4.246;2023-05-07T08:57:31;17.00;99.90
23156;DHT22;11746;50.876;4.246;2023-05-07T08:59:57;17.10;99.90
23156;DHT22;11746;50.876;4.246;2023-05-07T09:02:23;17.20;99.90
23156;DHT22;11746;50.876;4.246;2023-05-07T09:04:49;17.30;99.90
23156;DHT22;11746;50.876;4.246;2023-05-07T09:07:15;17.30;99.90
23156;DHT22;11746;50.876;4.246;2023-05-07T09:09:41;17.40;99.90
23156;DHT22;11746;50.876;4.246;2023-05-07T09:12:07;17.40;99.90
23156;DHT22;11746;50.876;4.246;2023-05-07T09:14:33;17.40;99.90
23156;DHT22;11746;50.876;4.246;2023-05-07T09:16:59;17.40;99.90
23156;DHT22;11746;50.876;4.246;2023-05-07T09:19:25;17.40;99.90
23156;DHT22;11746;50.876;4.246;2023-05-07T09:21:59;17.50;99.90
23156;DHT22;11746;50.876;4.246;2023-05-07T09:24:26;17.50;99.90
23156;DHT22;11746;50.876;4.246;2023-05-07T09:26:52;17.50;99.90
23156;DHT22;11746;50.876;4.246;2023-05-07T09:29:18;17.50;99.90
23156;DHT22;11746;50.876;4.246;2023-05-07T09:31:44;17.70;99.90
23156;DHT22;11746;50.876;4.246;2023-05-07T09:34:10;17.80;99.90
23156;DHT22;11746;50.876;4.246;2023-05-07T09:36:35;17.90;99.90
23156;DHT22;11746;50.876;4.246;2023-05-07T09:39:01;17.70;99.90
23156;DHT22;11746;50.876;4.246;2023-05-07T09:41:30;17.60;99.90
23156;DHT22;11746;50.876;4.246;2023-05-07T09:43:58;17.80;99.90
23156;DHT22;11746;50.876;4.246;2023-05-07T09:46:30;17.90;99.90
23156;DHT22;11746;50.876;4.246;2023-05-07T09:49:01;18.00;99.90
23156;DHT22;11746;50.876;4.246;2023-05-07T09:51:41;17.80;99.90
23156;DHT22;11746;50.876;4.246;2023-05-07T09:54:10;17.80;99.90
23156;DHT22;11746;50.876;4.246;2023-05-07T09:56:37;17.70;99.90
23156;DHT22;11746;50.876;4.246;2023-05-07T09:59:03;17.70;99.90
23156;DHT22;11746;50.876;4.246;2023-05-07T10:01:32;17.70;99.90
23156;DHT22;11746;50.876;4.246;2023-05-07T10:03:59;17.80;99.90
23156;DHT22;11746;50.876;4.246;2023-05-07T10:06:25;17.60;99.90
23156;DHT22;11746;50.876;4.246;2023-05-07T10:08:52;17.50;99.90
23156;DHT22;11746;50.876;4.246;2023-05-07T10:11:18;17.20;99.90
23156;DHT22;11746;50.876;4.246;2023-05-07T10:13:46;17.20;99.90
23156;DHT22;11746;50.876;4.246;2023-05-07T10:16:13;17.20;99.90
23156;DHT22;11746;50.876;4.246;2023-05-07T10:18:40;17.30;99.90
23156;DHT22;11746;50.876;4.246;2023-05-07T10:21:48;17.40;99.90
23156;DHT22;11746;50.876;4.246;2023-05-07T10:24:25;17.20;99.90
23156;DHT22;11746;50.876;4.246;2023-05-07T10:26:54;17.30;99.90
23156;DHT22;11746;50.876;4.246;2023-05-07T10:31:55;17.50;99.90
23156;DHT22;11746;50.876;4.246;2023-05-07T10:34:32;17.40;99.90
23156;DHT22;11746;50.876;4.246;2023-05-07T10:36:59;17.30;99.90
23156;DHT22;11746;50.876;4.246;2023-05-07T10:39:25;17.50;99.90
23156;DHT22;11746;50.876;4.246;2023-05-07T10:41:51;17.50;99.90
23156;DHT22;11746;50.876;4.246;2023-05-07T10:44:28;17.50;99.90
23156;DHT22;11746;50.876;4.246;2023-05-07T10:47:07;17.60;99.90
23156;DHT22;11746;50.876;4.246;2023-05-07T10:52:18;17.70;99.90
23156;DHT22;11746;50.876;4.246;2023-05-07T10:54:45;17.60;99.90
23156;DHT22;11746;50.876;4.246;2023-05-07T10:57:33;17.70;99.90
23156;DHT22;11746;50.876;4.246;2023-05-07T11:05:29;17.80;99.90
23156;DHT22;11746;50.876;4.246;2023-05-07T11:08:01;18.10;99.90
23156;DHT22;11746;50.876;4.246;2023-05-07T11:10:53;18.00;99.90
23156;DHT22;11746;50.876;4.246;2023-05-07T11:13:49;18.00;99.90
23156;DHT22;11746;50.876;4.246;2023-05-07T11:16:21;18.00;99.90
23156;DHT22;11746;50.876;4.246;2023-05-07T11:18:50;18.20;99.90
23156;DHT22;11746;50.876;4.246;2023-05-07T11:21:33;18.20;99.90
23156;DHT22;11746;50.876;4.246;2023-05-07T11:24:00;18.20;99.90
23156;DHT22;11746;50.876;4.246;2023-05-07T11:26:28;18.30;99.90
23156;DHT22;11746;50.876;4.246;2023-05-07T11:28:54;18.40;99.90
23156;DHT22;11746;50.876;4.246;2023-05-07T11:31:25;18.50;99.90
23156;DHT22;11746;50.876;4.246;2023-05-07T11:33:52;18.50;99.90
23156;DHT22;11746;50.876;4.246;2023-05-07T11:36:19;18.60;99.90
23156;DHT22;11746;50.876;4.246;2023-05-07T11:38:46;18.60;99.90
23156;DHT22;11746;50.876;4.246;2023-05-07T11:41:12;18.70;99.90
23156;DHT22;11746;50.876;4.246;2023-05-07T11:43:38;18.80;99.90
23156;DHT22;11746;50.876;4.246;2023-05-07T11:46:12;18.90;99.90
23156;DHT22;11746;50.876;4.246;2023-05-07T11:48:40;18.90;99.90
23156;DHT22;11746;50.876;4.246;2023-05-07T11:51:07;18.70;99.90
23156;DHT22;11746;50.876;4.246;2023-05-07T11:53:42;18.70;99.90
23156;DHT22;11746;50.876;4.246;2023-05-07T11:56:13;18.70;99.90
23156;DHT22;11746;50.876;4.246;2023-05-07T11:58:40;18.70;99.90
23156;DHT22;11746;50.876;4.246;2023-05-07T12:01:09;18.30;99.90
23156;DHT22;11746;50.876;4.246;2023-05-07T12:03:42;18.40;99.90
23156;DHT22;11746;50.876;4.246;2023-05-07T12:06:10;18.30;99.90
23156;DHT22;11746;50.876;4.246;2023-05-07T12:08:38;18.60;99.90
23156;DHT22;11746;50.876;4.246;2023-05-07T12:11:07;18.60;99.90
23156;DHT22;11746;50.876;4.246;2023-05-07T12:13:34;18.70;99.90
23156;DHT22;11746;50.876;4.246;2023-05-07T12:16:00;18.60;99.90
23156;DHT22;11746;50.876;4.246;2023-05-07T12:18:29;18.30;99.90
23156;DHT22;11746;50.876;4.246;2023-05-07T12:20:55;18.10;99.90
23156;DHT22;11746;50.876;4.246;2023-05-07T12:23:22;18.10;99.90
23156;DHT22;11746;50.876;4.246;2023-05-07T12:25:48;18.30;99.90
23156;DHT22;11746;50.876;4.246;2023-05-07T12:28:16;18.50;99.90
23156;DHT22;11746;50.876;4.246;2023-05-07T12:30:44;18.50;99.90
23156;DHT22;11746;50.876;4.246;2023-05-07T12:33:10;18.80;99.90
23156;DHT22;11746;50.876;4.246;2023-05-07T12:35:40;18.90;99.90
23156;DHT22;11746;50.876;4.246;2023-05-07T12:38:13;18.90;99.90
23156;DHT22;11746;50.876;4.246;2023-05-07T12:40:44;18.80;99.90
23156;DHT22;11746;50.876;4.246;2023-05-07T12:43:21;18.80;99.90
23156;DHT22;11746;50.876;4.246;2023-05-07T12:45:49;18.90;99.90
23156;DHT22;11746;50.876;4.246;2023-05-07T12:48:16;19.00;99.90
23156;DHT22;11746;50.876;4.246;2023-05-07T12:50:42;19.00;99.90
23156;DHT22;11746;50.876;4.246;2023-05-07T12:53:10;19.00;99.90
23156;DHT22;11746;50.876;4.246;2023-05-07T12:55:45;19.00;99.90
23156;DHT22;11746;50.876;4.246;2023-05-07T12:58:41;19.10;99.90
23156;DHT22;11746;50.876;4.246;2023-05-07T13:01:07;19.00;99.90
23156;DHT22;11746;50.876;4.246;2023-05-07T13:03:36;19.00;99.90
23156;DHT22;11746;50.876;4.246;2023-05-07T13:06:08;19.20;99.90
23156;DHT22;11746;50.876;4.246;2023-05-07T13:08:39;19.10;99.90
23156;DHT22;11746;50.876;4.246;2023-05-07T13:11:09;19.30;99.90
23156;DHT22;11746;50.876;4.246;2023-05-07T13:13:37;19.20;99.90
23156;DHT22;11746;50.876;4.246;2023-05-07T13:16:04;19.20;99.90
23156;DHT22;11746;50.876;4.246;2023-05-07T13:18:31;19.20;99.90
23156;DHT22;11746;50.876;4.246;2023-05-07T13:20:57;19.00;99.90
23156;DHT22;11746;50.876;4.246;2023-05-07T13:23:24;18.90;99.90
23156;DHT22;11746;50.876;4.246;2023-05-07T13:25:50;19.00;99.90
23156;DHT22;11746;50.876;4.246;2023-05-07T13:28:18;19.00;99.90
23156;DHT22;11746;50.876;4.246;2023-05-07T13:30:44;19.00;99.90
23156;DHT22;11746;50.876;4.246;2023-05-07T13:33:10;19.30;99.90
23156;DHT22;11746;50.876;4.246;2023-05-07T13:35:36;19.30;99.90
23156;DHT22;11746;50.876;4.246;2023-05-07T13:38:02;19.30;99.90
23156;DHT22;11746;50.876;4.246;2023-05-07T13:40:28;19.30;99.90
23156;DHT22;11746;50.876;4.246;2023-05-07T13:42:56;19.30;99.90
23156;DHT22;11746;50.876;4.246;2023-05-07T13:45:24;19.10;99.90
23156;DHT22;11746;50.876;4.246;2023-05-07T13:47:51;19.00;99.90
23156;DHT22;11746;50.876;4.246;2023-05-07T13:50:17;19.10;99.90
23156;DHT22;11746;50.876;4.246;2023-05-07T13:52:45;19.10;99.90
23156;DHT22;11746;50.876;4.246;2023-05-07T13:55:19;19.10;99.90
23156;DHT22;11746;50.876;4.246;2023-05-07T13:57:46;19.30;99.90
23156;DHT22;11746;50.876;4.246;2023-05-07T14:00:13;19.40;99.90
23156;DHT22;11746;50.876;4.246;2023-05-07T14:02:41;19.30;99.90
23156;DHT22;11746;50.876;4.246;2023-05-07T14:05:07;19.30;99.90
23156;DHT22;11746;50.876;4.246;2023-05-07T14:07:34;19.40;99.90
23156;DHT22;11746;50.876;4.246;2023-05-07T14:09:59;19.10;99.90
23156;DHT22;11746;50.876;4.246;2023-05-07T14:12:25;19.20;99.90
23156;DHT22;11746;50.876;4.246;2023-05-07T14:14:53;19.00;99.90
23156;DHT22;11746;50.876;4.246;2023-05-07T14:17:19;18.80;99.90
23156;DHT22;11746;50.876;4.246;2023-05-07T14:19:45;18.90;99.90
23156;DHT22;11746;50.876;4.246;2023-05-07T14:22:13;18.90;99.90
23156;DHT22;11746;50.876;4.246;2023-05-07T14:24:40;18.70;99.90
23156;DHT22;11746;50.876;4.246;2023-05-07T14:27:06;18.90;99.90
23156;DHT22;11746;50.876;4.246;2023-05-07T14:29:32;19.00;99.90
23156;DHT22;11746;50.876;4.246;2023-05-07T14:31:58;19.20;99.90
23156;DHT22;11746;50.876;4.246;2023-05-07T14:34:24;19.10;99.90
23156;DHT22;11746;50.876;4.246;2023-05-07T14:36:50;19.10;99.90
23156;DHT22;11746;50.876;4.246;2023-05-07T14:39:16;18.90;99.90
23156;DHT22;11746;50.876;4.246;2023-05-07T14:41:42;18.90;99.90
23156;DHT22;11746;50.876;4.246;2023-05-07T14:44:08;19.00;99.90
23156;DHT22;11746;50.876;4.246;2023-05-07T14:46:33;18.80;99.90
23156;DHT22;11746;50.876;4.246;2023-05-07T14:48:59;18.80;99.90
23156;DHT22;11746;50.876;4.246;2023-05-07T14:51:25;18.90;99.90
23156;DHT22;11746;50.876;4.246;2023-05-07T14:53:53;19.00;99.90
23156;DHT22;11746;50.876;4.246;2023-05-07T14:56:19;18.90;99.90
23156;DHT22;11746;50.876;4.246;2023-05-07T14:58:47;19.10;99.90
23156;DHT22;11746;50.876;4.246;2023-05-07T15:01:14;19.20;99.90
23156;DHT22;11746;50.876;4.246;2023-05-07T15:03:40;19.20;99.90
23156;DHT22;11746;50.876;4.246;2023-05-07T15:06:06;19.20;99.90
23156;DHT22;11746;50.876;4.246;2023-05-07T15:08:32;19.30;99.90
23156;DHT22;11746;50.876;4.246;2023-05-07T15:10:57;19.40;99.90
23156;DHT22;11746;50.876;4.246;2023-05-07T15:13:23;19.50;99.90
23156;DHT22;11746;50.876;4.246;2023-05-07T15:15:49;19.70;99.90
23156;DHT22;11746;50.876;4.246;2023-05-07T15:18:16;19.70;99.90
23156;DHT22;11746;50.876;4.246;2023-05-07T15:20:42;19.50;99.90
23156;DHT22;11746;50.876;4.246;2023-05-07T15:23:08;19.50;99.90
23156;DHT22;11746;50.876;4.246;2023-05-07T15:25:39;19.40;99.90
23156;DHT22;11746;50.876;4.246;2023-05-07T15:28:05;19.40;99.90
23156;DHT22;11746;50.876;4.246;2023-05-07T15:30:31;19.40;99.90
23156;DHT22;11746;50.876;4.246;2023-05-07T15:32:57;19.30;99.90
23156;DHT22;11746;50.876;4.246;2023-05-07T15:35:24;19.30;99.90
23156;DHT22;11746;50.876;4.246;2023-05-07T15:37:51;19.50;99.90
23156;DHT22;11746;50.876;4.246;2023-05-07T15:40:21;19.40;99.90